Time;durP1;ratioP1;P1;durP2;ratioP2;P2;SDS_P1;SDS_P2;PMS_P1;PMS_P2;Temp;Humidity;BMP_temperature;BMP_pressure;BME280_temperature;BME280_humidity;BME280_pressure;Samples;Min_cycle;Max_cycle;Signal;HPM_P1;HPM_P2
2021/07/05 00:02:22;;;;;;;22.02;11.15;;;21.70;99.90;;;22.37;61.00;100389.00;4993039;28;20190;-75
2021/07/05 00:04:49;;;;;;;20.40;10.85;;;21.70;99.90;;;22.32;61.53;100384.06;4993818;28;20205;-75
2021/07/05 00:07:17;;;;;;;20.33;10.85;;;21.70;99.90;;;22.31;61.51;100394.88;4995743;28;20206;-77
2021/07/05 00:09:44;;;;;;;18.88;9.45;;;21.60;99.90;;;22.28;61.98;100393.34;4976364;28;20222;-76
2021/07/05 00:12:13;;;;;;;17.70;9.95;;;21.60;99.90;;;22.26;62.11;100389.97;4976451;28;20194;-75
2021/07/05 00:14:40;;;;;;;20.25;10.23;;;21.60;99.90;;;22.23;62.29;100395.59;4976189;28;20207;-75
2021/07/05 00:17:07;;;;;;;19.30;9.82;;;21.60;99.90;;;22.20;62.40;100393.19;4992989;28;20187;-75
2021/07/05 00:19:34;;;;;;;15.77;8.80;;;21.50;99.90;;;22.19;62.44;100404.00;4994531;28;20211;-76
2021/07/05 00:22:00;;;;;;;17.10;8.80;;;21.50;99.90;;;22.16;62.89;100398.94;4976197;28;20198;-76
2021/07/05 00:24:28;;;;;;;15.15;8.30;;;21.50;99.90;;;22.11;63.31;100391.38;5008002;28;20183;-76
2021/07/05 00:26:55;;;;;;;15.45;9.27;;;21.40;99.90;;;22.07;63.42;100394.47;5002320;28;20573;-76
2021/07/05 00:29:23;;;;;;;13.98;7.90;;;21.40;99.90;;;22.03;63.49;100393.88;4977902;28;20205;-75
2021/07/05 00:31:51;;;;;;;16.65;8.30;;;21.40;99.90;;;22.03;63.37;100393.03;4976890;28;20218;-74
2021/07/05 00:34:18;;;;;;;13.60;7.70;;;21.30;99.90;;;22.01;63.69;100395.00;4996814;28;20194;-75
2021/07/05 00:36:45;;;;;;;13.93;8.02;;;21.30;99.90;;;21.98;63.49;100396.13;4993781;28;20187;-75
2021/07/05 00:39:11;;;;;;;13.50;7.85;;;21.30;99.90;;;21.96;63.92;100387.41;4994856;28;20246;-75
2021/07/05 00:41:38;;;;;;;15.88;8.20;;;21.30;99.90;;;21.94;63.96;100388.53;4994484;28;20197;-76
2021/07/05 00:44:06;;;;;;;16.48;8.48;;;21.20;99.90;;;21.94;64.29;100396.53;4977451;28;20197;-76
2021/07/05 00:46:34;;;;;;;13.93;7.63;;;21.20;99.90;;;21.91;63.82;100397.66;5009208;28;20199;-76
2021/07/05 00:49:01;;;;;;;12.90;7.38;;;21.20;99.90;;;21.88;63.90;100389.09;4993123;28;20225;-75
2021/07/05 00:51:28;;;;;;;14.13;8.20;;;21.10;99.90;;;21.86;64.53;100391.88;4993043;28;20194;-74
2021/07/05 00:53:55;;;;;;;14.32;7.90;;;21.20;99.90;;;21.83;64.06;100401.97;4974887;28;20212;-75
2021/07/05 00:56:23;;;;;;;14.30;7.90;;;21.10;99.90;;;21.80;64.29;100392.41;4974936;28;20241;-75
2021/07/05 00:58:50;;;;;;;14.25;7.72;;;21.10;99.90;;;21.78;64.20;100397.06;4992853;28;20207;-74
2021/07/05 01:01:18;;;;;;;14.65;7.40;;;21.10;99.90;;;21.74;64.67;100395.59;4994027;28;20195;-76
2021/07/05 01:03:46;;;;;;;14.35;7.22;;;21.10;99.90;;;21.72;64.60;100399.41;4996808;28;20594;-75
2021/07/05 01:06:13;;;;;;;15.63;8.57;;;21.00;99.90;;;21.70;64.79;100401.34;4996037;28;20559;-75
2021/07/05 01:08:40;;;;;;;14.63;7.80;;;21.00;99.90;;;21.68;65.03;100398.84;4978432;28;20219;-75
2021/07/05 01:11:07;;;;;;;15.20;8.52;;;21.00;99.90;;;21.65;64.95;100404.41;4978511;28;20565;-76
2021/07/05 01:13:34;;;;;;;15.75;8.25;;;21.00;99.90;;;21.63;65.25;100401.06;4995685;28;20278;-75
2021/07/05 01:16:02;;;;;;;13.35;7.75;;;21.00;99.90;;;21.62;65.25;100394.03;4978568;28;20772;-75
2021/07/05 01:18:29;;;;;;;12.90;7.55;;;21.00;99.90;;;21.60;65.44;100392.50;4978392;28;20210;-76
2021/07/05 01:21:00;;;;;;;14.63;7.95;;;20.90;99.90;;;21.57;65.54;100384.78;4996174;28;20210;-76
2021/07/05 01:23:27;;;;;;;12.85;7.43;;;20.90;99.90;;;21.57;65.36;100390.09;5011715;28;20230;-76
2021/07/05 01:25:54;;;;;;;13.07;7.80;;;20.90;99.90;;;21.56;65.59;100388.41;4996577;28;20191;-75
2021/07/05 01:28:22;;;;;;;13.27;7.43;;;20.90;99.90;;;21.53;65.62;100389.53;5002192;28;20234;-75
2021/07/05 01:30:50;;;;;;;13.68;7.90;;;20.90;99.90;;;21.52;65.92;100382.50;4995811;28;20191;-75
2021/07/05 01:33:17;;;;;;;15.18;8.05;;;20.80;99.90;;;21.49;65.99;100382.78;4977948;28;20199;-75
2021/07/05 01:35:45;;;;;;;14.60;7.55;;;20.80;99.90;;;21.47;65.98;100374.06;5010651;28;20205;-76
2021/07/05 01:38:18;;;;;;;14.63;8.20;;;20.80;99.90;;;21.46;65.86;100376.88;4995395;28;20207;-75
2021/07/05 01:40:45;;;;;;;13.35;7.40;;;20.80;99.90;;;21.43;65.90;100382.47;4978174;28;20253;-75
2021/07/05 01:43:13;;;;;;;14.63;7.90;;;20.80;99.90;;;21.41;65.80;100369.28;5010364;28;20257;-76
2021/07/05 01:45:40;;;;;;;15.15;7.63;;;20.70;99.90;;;21.40;66.08;100372.91;4978255;28;20226;-76
2021/07/05 01:48:07;;;;;;;14.68;8.55;;;20.70;99.90;;;21.37;66.43;100377.69;4995127;28;20246;-76
2021/07/05 01:50:34;;;;;;;13.35;8.10;;;20.70;99.90;;;;;;4978352;28;20290;-76
2021/07/05 01:53:01;;;;;;;13.52;8.27;;;20.70;99.90;;;21.29;66.85;100375.69;5010485;28;20199;-75
2021/07/05 01:55:33;;;;;;;13.90;7.70;;;20.70;99.90;;;21.26;66.99;100375.97;4978462;28;20257;-75
2021/07/05 01:58:02;;;;;;;13.93;8.35;;;20.60;99.90;;;21.23;66.82;100372.72;5007161;28;20218;-76
2021/07/05 02:00:32;;;;;;;12.90;7.50;;;20.60;99.90;;;21.19;67.10;100380.13;5019056;28;20218;-74
2021/07/05 02:03:01;;;;;;;13.68;8.43;;;20.60;99.90;;;21.17;67.22;100365.28;5019188;28;20191;-76
2021/07/05 02:05:28;;;;;;;12.65;7.47;;;20.60;99.90;;;21.16;67.19;100372.41;5019027;28;20202;-77
2021/07/05 02:07:57;;;;;;;14.02;7.95;;;20.50;99.90;;;21.14;67.00;100367.22;4979248;28;20701;-73
2021/07/05 02:10:30;;;;;;;14.73;8.43;;;20.50;99.90;;;21.12;67.19;100358.53;4996733;28;20187;-75
2021/07/05 02:13:00;;;;;;;15.18;8.15;;;20.50;99.90;;;21.10;67.57;100367.59;4997199;28;20688;-75
2021/07/05 02:15:27;;;;;;;13.85;8.48;;;20.40;99.90;;;21.06;67.60;100380.38;5004970;28;20179;-74
2021/07/05 02:17:54;;;;;;;14.23;8.10;;;20.40;99.90;;;21.03;67.76;100367.28;5016555;28;20265;-75
2021/07/05 02:20:25;;;;;;;15.45;8.38;;;20.40;99.90;;;21.01;67.75;100374.59;5000706;28;20222;-75
2021/07/05 02:22:54;;;;;;;14.52;8.32;;;20.40;99.90;;;21.00;68.07;100369.38;4999781;28;20191;-76
2021/07/05 02:25:26;;;;;;;15.20;8.35;;;20.40;99.90;;;21.00;67.95;100380.03;5014347;28;20189;-75
2021/07/05 02:27:55;;;;;;;16.42;8.77;;;20.40;99.90;;;20.97;68.07;100366.94;4991730;28;20246;-75
2021/07/05 02:30:25;;;;;;;15.60;8.63;;;20.40;99.90;;;20.95;68.21;100369.75;4977423;28;20195;-75
2021/07/05 02:32:54;;;;;;;14.75;8.57;;;20.30;99.90;;;20.92;68.21;100364.69;4977675;28;20222;-76
2021/07/05 02:35:23;;;;;;;15.02;9.13;;;20.30;99.90;;;20.91;68.68;100375.47;4977799;28;20206;-75
2021/07/05 02:37:54;;;;;;;15.48;8.90;;;20.30;99.90;;;20.88;68.58;100375.75;5009792;28;20207;-74
2021/07/05 02:40:25;;;;;;;14.55;8.45;;;20.30;99.90;;;20.87;68.93;100371.38;4980126;28;20223;-73
2021/07/05 02:42:52;;;;;;;15.40;8.77;;;20.30;99.90;;;20.85;68.95;100386.63;4977937;28;20680;-75
2021/07/05 02:45:25;;;;;;;16.88;8.25;;;20.20;99.90;;;20.82;69.02;100378.91;5010451;28;20205;-76
2021/07/05 02:47:53;;;;;;;15.13;8.90;;;20.20;99.90;;;20.79;69.05;100382.69;4997332;28;20211;-75
2021/07/05 02:50:20;;;;;;;13.38;8.25;;;20.20;99.90;;;20.82;69.08;100386.88;5001220;28;20194;-74
2021/07/05 02:52:48;;;;;;;15.77;9.30;;;20.20;99.90;;;20.83;69.17;100385.94;5016536;28;20175;-73
2021/07/05 02:55:16;;;;;;;15.20;8.98;;;20.20;99.90;;;20.84;69.40;100384.94;4998558;28;20266;-75
2021/07/05 02:57:44;;;;;;;16.27;8.73;;;20.20;99.90;;;20.84;69.47;100395.59;5009122;28;20210;-75
2021/07/05 03:00:15;;;;;;;14.95;8.85;;;20.20;99.90;;;20.85;69.21;100398.13;5001968;28;20214;-75
2021/07/05 03:02:45;;;;;;;16.55;8.55;;;20.20;99.90;;;20.83;69.20;100400.06;5006159;28;20187;-73
2021/07/05 03:05:15;;;;;;;14.75;8.48;;;20.10;99.90;;;20.82;69.44;100389.56;4990473;28;20179;-73
2021/07/05 03:07:43;;;;;;;15.10;8.80;;;20.20;99.90;;;20.83;69.46;100389.41;4998005;28;20214;-76
2021/07/05 03:10:14;;;;;;;18.90;9.05;;;20.20;99.90;;;20.84;69.49;100400.91;4993426;28;20556;-76
2021/07/05 03:12:41;;;;;;;15.98;8.95;;;20.20;99.90;;;20.82;69.33;100408.19;5008827;28;20665;-76
2021/07/05 03:15:11;;;;;;;15.23;8.70;;;20.20;99.90;;;20.82;69.60;100403.72;5008694;28;20198;-75
2021/07/05 03:17:40;;;;;;;15.27;9.05;;;20.20;99.90;;;20.84;69.81;100408.91;4976195;28;20219;-75
2021/07/05 03:20:13;;;;;;;16.13;9.02;;;20.20;99.90;;;20.84;69.47;100406.25;4976190;28;20304;-76
2021/07/05 03:22:40;;;;;;;16.00;8.80;;;20.20;99.90;;;20.83;69.46;100409.88;4993508;28;20190;-76
2021/07/05 03:25:11;;;;;;;15.15;9.32;;;20.20;99.90;;;20.84;69.25;100403.56;4975622;28;20195;-75
2021/07/05 03:27:39;;;;;;;16.63;9.18;;;20.20;99.90;;;20.86;69.27;100410.47;4975672;28;20688;-75
2021/07/05 03:30:09;;;;;;;16.38;9.35;;;20.30;99.90;;;20.88;69.24;100402.34;4976041;28;20199;-75
2021/07/05 03:32:37;;;;;;;17.05;9.23;;;20.30;99.90;;;20.88;69.43;100405.84;4993583;28;20201;-76
2021/07/05 03:35:06;;;;;;;14.60;8.82;;;20.30;99.90;;;20.89;69.30;100410.22;4976223;28;20194;-75
2021/07/05 03:37:35;;;;;;;15.23;8.95;;;20.30;99.90;;;20.92;69.00;100411.75;4993302;28;20494;-76
2021/07/05 03:40:03;;;;;;;14.48;8.80;;;20.30;99.90;;;20.94;69.06;100410.66;4993240;28;20206;-76
2021/07/05 03:42:30;;;;;;;15.40;8.73;;;20.40;99.90;;;20.93;68.97;100411.59;4993856;28;20658;-75
2021/07/05 03:44:57;;;;;;;16.30;8.77;;;20.40;99.90;;;20.92;69.21;100414.41;4976298;28;20205;-76
2021/07/05 03:47:23;;;;;;;15.38;8.98;;;20.40;99.90;;;20.92;69.41;100414.41;4993324;28;20206;-76
2021/07/05 03:49:50;;;;;;;14.27;8.57;;;20.40;99.90;;;20.92;nan;100417.06;4976206;28;20217;-76
2021/07/05 03:52:17;;;;;;;14.07;8.25;;;20.40;99.90;;;20.92;69.51;100417.06;4975913;28;20205;-76
2021/07/05 03:54:45;;;;;;;15.15;8.68;;;20.40;99.90;;;20.91;69.85;100415.41;4993380;28;20182;-76
2021/07/05 03:57:22;;;;;;;14.18;8.63;;;20.40;99.90;;;20.90;69.53;100414.53;4975721;28;20218;-75
2021/07/05 03:59:49;;;;;;;15.35;8.65;;;20.40;99.90;;;20.89;69.92;100410.22;4993244;28;20206;-77
2021/07/05 04:02:17;;;;;;;19.70;8.52;;;20.40;99.90;;;20.86;70.11;100405.16;4997149;28;20183;-76
2021/07/05 04:04:44;;;;;;;13.85;8.18;;;20.40;99.90;;;20.88;69.91;100413.81;5014540;28;20221;-76
2021/07/05 04:07:11;;;;;;;14.68;8.48;;;20.40;99.90;;;20.89;70.10;100414.66;4979982;28;20217;-76
2021/07/05 04:09:39;;;;;;;15.55;8.45;;;20.40;99.90;;;20.89;70.46;100407.53;5012976;28;20205;-75
2021/07/05 04:12:10;;;;;;;15.15;8.57;;;20.40;99.90;;;20.88;70.24;100415.66;4997237;28;20669;-76
2021/07/05 04:14:38;;;;;;;17.13;10.98;;;20.40;99.90;;;20.86;70.28;100420.25;4997871;28;20555;-77
2021/07/05 04:17:05;;;;;;;15.30;8.68;;;20.40;99.90;;;20.85;70.45;100424.72;4996908;28;20194;-75
2021/07/05 04:19:33;;;;;;;15.00;9.00;;;20.40;99.90;;;20.84;70.70;100422.19;4997140;28;20688;-77
2021/07/05 04:21:59;;;;;;;15.77;8.88;;;20.40;99.90;;;20.81;71.01;100415.34;4996889;28;20194;-76
2021/07/05 04:24:27;;;;;;;14.98;9.05;;;20.40;99.90;;;20.80;70.90;100426.09;4985144;28;20222;-77
2021/07/05 04:26:54;;;;;;;14.15;8.32;;;20.40;99.90;;;20.78;71.24;100422.72;5017491;28;20254;-77
2021/07/05 04:29:22;;;;;;;16.35;9.50;;;20.30;99.90;;;20.72;71.37;100417.91;4994328;28;20688;-75
2021/07/05 04:31:49;;;;;;;14.95;9.25;;;20.30;99.90;;;20.70;71.73;100414.53;4975716;28;20206;-76
2021/07/05 04:34:16;;;;;;;15.32;8.40;;;20.30;99.90;;;20.69;71.70;100408.38;4975841;28;20195;-76
2021/07/05 04:36:43;;;;;;;15.82;8.48;;;20.20;99.90;;;20.66;71.88;100405.13;4977898;28;20214;-76
2021/07/05 04:39:10;;;;;;;14.82;9.07;;;20.20;99.90;;;20.67;71.59;100409.47;5011906;28;20229;-75
2021/07/05 04:41:37;;;;;;;15.13;9.32;;;20.20;99.90;;;20.68;71.75;100405.84;4979298;28;20673;-76
2021/07/05 04:44:05;;;;;;;18.60;8.73;;;20.30;99.90;;;20.67;71.96;100396.16;4979471;28;20187;-75
2021/07/05 04:46:33;;;;;;;15.57;9.00;;;20.30;99.90;;;20.70;71.57;100398.56;4979521;28;20191;-76
2021/07/05 04:49:00;;;;;;;16.23;9.32;;;20.30;99.90;;;20.68;72.07;100396.03;4980488;28;20222;-74
2021/07/05 04:51:27;;;;;;;13.95;8.63;;;20.20;99.90;;;20.64;72.02;100393.78;4998558;28;20673;-76
2021/07/05 04:53:54;;;;;;;17.98;9.10;;;20.20;99.90;;;20.65;71.98;100400.78;4981806;28;20194;-76
2021/07/05 04:56:21;;;;;;;14.98;9.18;;;20.20;99.90;;;20.65;72.25;100393.66;4998853;28;20191;-76
2021/07/05 04:58:48;;;;;;;17.40;9.20;;;20.20;99.90;;;20.67;72.20;100396.16;4982712;28;20254;-76
2021/07/05 05:01:15;;;;;;;15.35;9.02;;;20.30;99.90;;;20.70;72.32;100388.78;5001478;28;20708;-76
2021/07/05 05:03:43;;;;;;;15.48;9.02;;;20.30;99.90;;;20.73;72.52;100387.69;5002450;28;20179;-76
2021/07/05 05:06:10;;;;;;;16.70;8.85;;;20.30;99.90;;;20.74;72.49;100395.53;5035188;28;20181;-75
2021/07/05 05:08:37;;;;;;;15.40;9.35;;;20.40;99.90;;;20.78;72.00;100396.94;5003527;28;20233;-76
2021/07/05 05:11:03;;;;;;;14.95;8.95;;;20.40;99.90;;;20.84;72.24;100395.59;4984294;28;20191;-75
2021/07/05 05:13:30;;;;;;;15.73;9.52;;;20.40;99.90;;;20.88;72.09;100391.72;4981000;28;20191;-75
2021/07/05 05:15:57;;;;;;;17.05;9.65;;;20.50;99.90;;;20.94;71.91;100404.47;4981112;28;20677;-75
2021/07/05 05:18:26;;;;;;;17.75;9.88;;;20.60;99.90;;;20.94;71.74;100401.81;4992532;28;20210;-77
2021/07/05 05:20:55;;;;;;;17.35;9.68;;;20.60;99.90;;;20.95;72.06;100406.16;4985340;28;20225;-76
2021/07/05 05:23:22;;;;;;;17.92;9.25;;;20.60;99.90;;;21.00;71.81;100406.63;5006710;28;20201;-75
2021/07/05 05:25:49;;;;;;;16.17;9.15;;;20.70;99.90;;;21.05;71.82;100409.75;5017691;28;20191;-75
2021/07/05 05:28:16;;;;;;;18.13;9.68;;;20.80;99.90;;;21.09;72.05;100413.84;5019873;28;20210;-75
2021/07/05 05:30:43;;;;;;;15.02;9.20;;;20.80;99.90;;;21.10;72.18;100410.19;5003410;28;20262;-75
2021/07/05 05:33:10;;;;;;;19.40;9.30;;;20.90;99.90;;;21.12;72.14;100411.75;5019963;28;20174;-77
2021/07/05 05:35:36;;;;;;;15.20;9.13;;;20.90;99.90;;;21.14;72.01;100417.81;5020279;28;20182;-75
2021/07/05 05:38:05;;;;;;;15.50;9.13;;;20.90;99.90;;;21.16;72.38;100417.69;5019597;28;20187;-75
2021/07/05 05:40:31;;;;;;;13.48;8.02;;;20.90;99.90;;;21.14;72.24;100419.63;5019431;28;20225;-76
2021/07/05 05:42:59;;;;;;;13.52;8.35;;;20.90;99.90;;;21.12;72.26;100421.56;5002579;28;20246;-76
2021/07/05 05:45:26;;;;;;;14.32;8.70;;;20.90;99.90;;;21.12;72.61;100426.88;5018896;28;20254;-74
2021/07/05 05:47:53;;;;;;;16.08;8.32;;;20.90;99.90;;;21.10;72.45;100428.84;5001584;28;20209;-76
2021/07/05 05:50:22;;;;;;;15.25;8.40;;;20.80;99.90;;;21.08;72.38;100431.63;5020114;28;20208;-75
2021/07/05 05:52:48;;;;;;;15.80;8.15;;;20.80;99.90;;;21.11;72.27;100428.72;5001945;28;20197;-73
2021/07/05 05:55:17;;;;;;;13.50;7.88;;;20.90;99.90;;;21.14;71.81;100435.59;4983608;28;20217;-75
2021/07/05 05:57:43;;;;;;;13.65;7.85;;;20.90;99.90;;;21.18;71.98;100432.53;5013871;28;20219;-75
2021/07/05 06:00:16;;;;;;;14.25;7.82;;;20.90;99.90;;;21.20;71.78;100437.72;4981313;28;20270;-75
2021/07/05 06:02:43;;;;;;;14.93;8.20;;;21.00;99.90;;;21.23;71.98;100434.81;4983840;28;20205;-73
2021/07/05 06:05:10;;;;;;;13.80;7.72;;;21.00;99.90;;;21.28;71.58;100437.06;4997790;28;20190;-74
2021/07/05 06:07:38;;;;;;;14.20;7.40;;;21.10;99.90;;;21.34;71.52;100431.19;5011129;28;20222;-75
2021/07/05 06:10:07;;;;;;;12.50;6.72;;;21.20;99.90;;;21.40;71.58;100436.00;4996080;28;20214;-75
2021/07/05 06:12:35;;;;;;;14.30;8.07;;;21.20;99.90;;;21.42;71.71;100431.41;4978335;28;20206;-76
2021/07/05 06:15:02;;;;;;;12.77;7.25;;;21.30;99.90;;;21.42;71.27;100440.22;4995634;28;20187;-75
2021/07/05 06:17:29;;;;;;;15.65;7.55;;;21.30;99.90;;;21.44;71.54;100438.28;4995436;28;20289;-75
2021/07/05 06:19:56;;;;;;;14.50;7.38;;;21.40;99.90;;;21.51;71.63;100439.44;4978888;28;20202;-74
2021/07/05 06:22:28;;;;;;;13.55;7.43;;;21.40;99.90;;;21.55;71.50;100438.16;4998488;28;20304;-73
2021/07/05 06:24:56;;;;;;;14.85;7.10;;;21.50;99.90;;;21.57;72.06;100438.06;4999032;28;20183;-75
2021/07/05 06:27:22;;;;;;;12.35;6.80;;;21.50;99.90;;;21.61;72.02;100439.47;4997606;28;20209;-76
2021/07/05 06:29:51;;;;;;;13.27;7.00;;;21.60;99.90;;;21.66;71.41;100443.41;4997900;28;20202;-74
2021/07/05 06:32:17;;;;;;;12.98;7.28;;;21.60;99.90;;;21.67;71.84;100442.44;5001630;28;20191;-75
2021/07/05 06:34:44;;;;;;;13.00;7.22;;;21.60;99.90;;;21.72;72.16;100442.84;4982536;28;20549;-75
2021/07/05 06:37:11;;;;;;;15.35;7.72;;;21.70;99.90;;;21.79;71.91;100453.84;4996944;28;20206;-76
2021/07/05 06:39:38;;;;;;;14.65;7.45;;;21.70;99.90;;;21.80;71.66;100452.91;4995113;28;20568;-75
2021/07/05 06:42:05;;;;;;;13.95;7.60;;;21.70;99.90;;;21.75;72.19;100463.91;5020864;28;20725;-75
2021/07/05 06:44:32;;;;;;;13.25;7.30;;;21.70;99.90;;;21.69;72.39;100471.59;4993319;28;20195;-75
2021/07/05 06:47:01;;;;;;;13.13;7.15;;;21.60;99.90;;;21.60;72.66;100473.25;4988281;28;20191;-76
2021/07/05 06:49:28;;;;;;;13.82;7.05;;;21.60;99.90;;;21.58;72.80;100475.22;5000998;28;20187;-76
2021/07/05 06:51:55;;;;;;;12.25;7.07;;;21.50;99.90;;;21.58;72.60;100472.56;4983021;28;20206;-75
2021/07/05 06:54:22;;;;;;;12.15;7.03;;;21.50;99.90;;;21.64;73.02;100466.69;4980450;28;20199;-75
2021/07/05 06:56:52;;;;;;;12.10;6.53;;;21.60;99.90;;;21.70;72.84;100471.47;4982347;28;20191;-76
2021/07/05 06:59:18;;;;;;;12.45;6.93;;;21.70;99.90;;;21.73;72.83;100475.69;4996023;28;20178;-76
2021/07/05 07:01:45;;;;;;;12.50;6.72;;;21.70;99.90;;;21.72;72.66;100479.34;4994982;28;20214;-75
2021/07/05 07:04:14;;;;;;;13.55;6.90;;;21.70;99.90;;;21.67;72.85;100482.38;5009936;28;20569;-77
2021/07/05 07:06:41;;;;;;;12.15;6.35;;;21.60;99.90;;;21.67;72.66;100471.72;4994340;28;20270;-75
2021/07/05 07:09:09;;;;;;;11.98;6.18;;;21.60;99.90;;;21.70;72.83;100471.47;4976513;28;20207;-74
2021/07/05 07:11:35;;;;;;;11.90;5.93;;;21.70;99.90;;;21.72;72.51;100480.16;4993845;28;20187;-75
2021/07/05 07:14:02;;;;;;;12.70;6.47;;;21.70;99.90;;;21.67;72.67;100476.25;4993504;28;20202;-74
2021/07/05 07:16:30;;;;;;;13.50;6.38;;;21.70;99.90;;;21.64;72.87;100465.81;5008782;28;20199;-74
2021/07/05 07:19:08;;;;;;;9.90;5.63;;;21.60;99.90;;;21.62;72.63;100460.63;4993379;28;20207;-75
2021/07/05 07:21:36;;;;;;;11.40;5.88;;;21.60;99.90;;;21.59;72.59;100468.91;4976161;28;20305;-75
2021/07/05 07:24:04;;;;;;;12.00;5.68;;;21.50;99.90;;;21.49;73.01;100472.50;4993210;28;20194;-74
2021/07/05 07:26:31;;;;;;;11.02;5.38;;;21.40;99.90;;;21.41;73.28;100478.50;4993118;28;20561;-74
2021/07/05 07:28:58;;;;;;;12.45;5.95;;;21.30;99.90;;;21.32;73.35;100481.94;4975823;28;20716;-74
2021/07/05 07:31:25;;;;;;;13.38;6.75;;;21.20;99.90;;;21.28;73.59;100480.53;4993528;28;20195;-75
2021/07/05 07:33:52;;;;;;;11.85;6.45;;;21.10;99.90;;;21.25;73.91;100486.09;4993413;28;20194;-76
2021/07/05 07:36:19;;;;;;;11.30;6.00;;;21.00;99.90;;;21.12;75.24;100491.63;4976372;28;20637;-75
2021/07/05 07:38:49;;;;;;;12.40;6.60;;;20.80;99.90;;;20.98;75.90;100483.97;4993277;28;20221;-75
2021/07/05 07:41:21;;;;;;;11.43;6.43;;;20.50;99.90;;;20.87;76.95;100491.13;4993764;28;20289;-74
2021/07/05 07:43:49;;;;;;;12.70;6.38;;;20.20;99.90;;;20.79;77.68;100493.59;4976561;28;20203;-76
2021/07/05 07:46:16;;;;;;;13.10;6.35;;;20.10;99.90;;;20.72;78.22;100493.25;4993709;28;20186;-75
2021/07/05 07:48:43;;;;;;;13.57;6.60;;;20.00;99.90;;;20.69;78.96;100496.19;4994027;28;20219;-75
2021/07/05 07:51:10;;;;;;;12.60;6.20;;;19.90;99.90;;;20.64;79.44;100498.38;4977345;28;20195;-74
2021/07/05 07:53:36;;;;;;;12.75;6.00;;;19.80;99.90;;;20.60;80.05;100504.06;4993610;28;20197;-73
2021/07/05 07:56:05;;;;;;;13.13;5.25;;;19.70;99.90;;;20.54;80.70;100509.88;4996030;28;20193;-74
2021/07/05 07:58:32;;;;;;;10.45;5.35;;;19.70;99.90;;;20.45;81.04;100506.16;4994580;28;20206;-75
2021/07/05 08:00:59;;;;;;;12.27;6.00;;;19.60;99.90;;;20.31;82.13;100516.25;4994610;28;20201;-75
2021/07/05 08:03:26;;;;;;;11.55;5.05;;;19.50;99.90;;;20.24;82.74;100507.06;4995308;28;20182;-74
2021/07/05 08:05:54;;;;;;;11.25;5.80;;;19.50;99.90;;;20.17;83.54;100508.53;5011012;28;20245;-74
2021/07/05 08:08:21;;;;;;;10.40;5.53;;;19.40;99.90;;;20.06;83.82;100503.19;4979038;28;20237;-74
2021/07/05 08:10:48;;;;;;;11.82;5.60;;;19.30;99.90;;;19.93;84.20;100512.16;4992350;28;20199;-76
2021/07/05 08:13:16;;;;;;;12.13;5.80;;;19.20;99.90;;;19.87;84.85;100519.75;5018780;28;20187;-74
2021/07/05 08:15:43;;;;;;;11.25;5.70;;;19.10;99.90;;;19.81;85.29;100520.22;5016575;28;20198;-74
2021/07/05 08:18:10;;;;;;;12.48;5.43;;;19.00;99.90;;;19.78;85.67;100515.16;4983553;28;20210;-76
2021/07/05 08:20:37;;;;;;;10.07;4.72;;;19.00;99.90;;;19.71;86.05;100509.50;4981241;28;20198;-74
2021/07/05 08:23:04;;;;;;;12.13;4.85;;;18.90;99.90;;;19.66;86.20;100514.31;4997498;28;20211;-75
2021/07/05 08:25:31;;;;;;;10.05;4.78;;;18.90;99.90;;;19.67;86.68;100518.69;4996341;28;20566;-75
2021/07/05 08:27:58;;;;;;;12.02;4.57;;;18.90;99.90;;;19.66;86.64;100516.13;4978518;28;20693;-74
2021/07/05 08:30:28;;;;;;;10.55;4.72;;;18.90;99.90;;;19.57;87.06;100511.53;5011792;28;20290;-75
2021/07/05 08:32:57;;;;;;;12.40;5.50;;;18.80;99.90;;;19.53;87.43;100518.91;4997042;28;20191;-75
2021/07/05 08:35:25;;;;;;;12.13;5.13;;;18.80;99.90;;;19.50;87.55;100520.94;4979548;28;20250;-75
2021/07/05 08:37:54;;;;;;;12.57;5.20;;;18.80;99.90;;;19.48;88.48;100521.06;4996532;28;20231;-75
2021/07/05 08:40:21;;;;;;;11.10;5.22;;;18.80;99.90;;;19.44;89.18;100516.94;4997572;28;20183;-75
2021/07/05 08:42:49;;;;;;;12.35;5.57;;;18.80;99.90;;;19.44;89.72;100522.25;4979988;28;20211;-75
2021/07/05 08:45:16;;;;;;;10.98;5.43;;;18.80;99.90;;;19.44;89.46;100511.63;4979198;28;20195;-75
2021/07/05 08:47:50;;;;;;;14.32;5.82;;;18.80;99.90;;;19.44;90.54;100508.97;5011157;28;20616;-76
2021/07/05 08:50:19;;;;;;;11.75;5.63;;;18.80;99.90;;;19.44;90.97;100505.50;4996350;28;20677;-76
2021/07/05 08:52:46;;;;;;;12.63;6.18;;;18.90;99.90;;;19.44;91.21;100501.03;4998651;28;20183;-76
2021/07/05 08:55:15;;;;;;;12.73;5.65;;;18.90;99.90;;;19.46;91.01;100503.56;5012213;28;20680;-76
2021/07/05 08:57:42;;;;;;;12.00;6.20;;;18.90;99.90;;;19.46;91.92;100504.41;4978619;28;20276;-76
2021/07/05 09:00:13;;;;;;;12.70;6.43;;;18.90;99.90;;;19.50;91.86;100511.19;4978717;28;20199;-75
2021/07/05 09:02:41;;;;;;;15.65;6.13;;;18.90;99.90;;;19.51;92.12;100506.69;4997709;28;20711;-76
2021/07/05 09:05:11;;;;;;;14.55;6.70;;;18.90;99.90;;;19.53;92.12;100510.94;4978957;28;20579;-75
2021/07/05 09:08:04;;;;;;;13.60;6.97;;;18.90;99.90;;;19.59;92.47;100510.44;4978592;28;20226;-75
2021/07/05 09:10:45;;;;;;;14.38;7.22;;;19.00;99.90;;;19.60;92.47;100506.00;4978902;28;20281;-75
2021/07/05 09:13:18;;;;;;;16.10;7.10;;;19.00;99.90;;;19.63;92.11;100505.75;4978830;28;20190;-73
2021/07/05 09:15:48;;;;;;;15.43;7.45;;;19.00;99.90;;;19.69;92.45;100506.09;4996559;28;20191;-75
2021/07/05 09:18:33;;;;;;;16.50;7.55;;;19.10;99.90;;;19.74;92.63;100509.25;4995735;28;20210;-76
2021/07/05 09:21:15;;;;;;;13.73;7.18;;;19.10;99.90;;;19.77;92.39;100517.00;4978108;28;20294;-74
2021/07/05 09:24:02;;;;;;;15.32;7.50;;;19.10;99.90;;;19.80;92.50;100519.41;4978560;28;20215;-76
2021/07/05 09:26:34;;;;;;;15.55;6.68;;;19.20;99.90;;;19.85;92.66;100522.53;4977860;28;20191;-76
2021/07/05 09:29:04;;;;;;;15.50;7.45;;;19.30;99.90;;;19.83;92.40;100521.81;5011027;28;20219;-76
2021/07/05 09:31:37;;;;;;;14.18;7.35;;;19.30;99.90;;;19.85;92.43;100521.69;4995666;28;20198;-76
2021/07/05 09:34:19;;;;;;;14.55;6.90;;;19.30;99.90;;;19.88;92.37;100532.06;4996054;28;20194;-76
2021/07/05 09:36:51;;;;;;;15.85;7.95;;;19.30;99.90;;;19.87;92.74;100525.06;4977994;28;20641;-74
2021/07/05 09:39:21;;;;;;;15.25;7.75;;;19.30;99.90;;;19.89;92.80;100531.13;4995429;28;20187;-75
2021/07/05 09:41:52;;;;;;;13.55;7.38;;;19.20;99.90;;;19.92;92.69;100529.06;4978474;28;20234;-75
2021/07/05 09:44:24;;;;;;;14.68;7.90;;;19.20;99.90;;;19.93;92.47;100530.75;4977969;28;20191;-76
2021/07/05 09:46:56;;;;;;;16.25;8.10;;;19.20;99.90;;;19.96;92.78;100537.63;4986061;28;20568;-75
2021/07/05 09:49:29;;;;;;;16.58;8.23;;;19.30;99.90;;;19.98;92.55;100533.03;4977774;28;20195;-75
2021/07/05 09:52:13;;;;;;;17.65;7.85;;;19.30;99.90;;;19.95;92.75;100534.13;5010861;28;20195;-75
2021/07/05 09:54:44;;;;;;;19.05;8.60;;;19.30;99.90;;;19.94;92.90;100535.09;4979019;28;20222;-76
2021/07/05 09:57:28;;;;;;;15.15;7.75;;;19.30;99.90;;;19.90;92.79;100536.31;5009756;28;20233;-75
2021/07/05 09:59:59;;;;;;;15.50;7.85;;;19.30;99.90;;;19.89;93.33;100529.28;4979232;28;20285;-77
2021/07/05 10:02:26;;;;;;;14.85;8.25;;;19.30;99.90;;;19.88;93.60;100527.63;4997433;28;20211;-76
2021/07/05 10:05:10;;;;;;;16.02;8.27;;;19.30;99.90;;;19.87;93.87;100531.25;4995362;28;20187;-75
2021/07/05 10:07:38;;;;;;;16.83;8.25;;;19.30;99.90;;;19.89;93.89;100523.16;4976876;28;20249;-75
2021/07/05 10:10:13;;;;;;;15.50;7.95;;;19.30;99.90;;;19.93;93.75;100520.13;4995710;28;20650;-76
2021/07/05 10:12:51;;;;;;;15.07;7.47;;;19.30;99.90;;;19.95;93.58;100514.69;4977156;28;20198;-76